Time,TemperatureF,DewpointF,PressureIn,WindDirection,WindDirectionDegrees,WindSpeedMPH,WindSpeedGustMPH,Humidity,HourlyPrecipIn,Conditions,Clouds,dailyrainin,SoftwareType,DateUTC
2013-09-12 00:01:00,73.7,69.3,29.97,North,355,0.0,0.0,86,0.00,,---,0.00,VWS V14.01,2013-09-12 04:01:00,
2013-09-12 00:02:00,73.7,69.3,29.97,North,355,0.0,0.0,86,0.00,,---,0.00,VWS V14.01,2013-09-12 04:02:00,
2013-09-12 00:05:00,73.5,69.1,29.97,North,355,0.0,0.0,86,0.00,,---,0.00,VWS V14.01,2013-09-12 04:05:00,
2013-09-12 00:10:00,73.5,69.1,29.96,North,355,0.0,0.0,86,0.00,,---,0.00,VWS V14.01,2013-09-12 04:10:00,
2013-09-12 00:15:00,73.3,69.2,29.97,North,355,0.0,0.0,87,0.00,,---,0.00,VWS V14.01,2013-09-12 04:15:00,
2013-09-12 00:20:00,73.3,69.2,29.96,North,355,0.0,0.0,87,0.00,,---,0.00,VWS V14.01,2013-09-12 04:20:00,
2013-09-12 00:25:00,73.3,69.5,29.97,North,355,0.0,0.0,88,0.00,,---,0.00,VWS V14.01,2013-09-12 04:25:00,
2013-09-12 00:30:00,73.2,69.4,29.96,North,355,0.0,0.0,88,0.00,,---,0.00,VWS V14.01,2013-09-12 04:30:00,
2013-09-12 00:35:00,73.2,69.8,29.96,North,355,0.0,0.0,89,0.00,,---,0.00,VWS V14.01,2013-09-12 04:35:00,
2013-09-12 00:36:00,73.2,69.8,29.96,North,355,0.0,0.0,89,0.00,,---,0.00,VWS V14.01,2013-09-12 04:36:00,
2013-09-12 00:41:00,73.0,69.6,29.96,North,355,0.0,0.0,89,0.00,,---,0.00,VWS V14.01,2013-09-12 04:41:00,
2013-09-12 00:44:00,73.0,69.6,29.96,North,355,0.0,0.0,89,0.00,,---,0.00,VWS V14.01,2013-09-12 04:44:00,
2013-09-12 00:49:00,72.8,69.4,29.95,North,355,0.0,0.0,89,0.00,,---,0.00,VWS V14.01,2013-09-12 04:49:00,
2013-09-12 00:54:00,72.8,69.4,29.95,North,355,0.0,0.0,89,0.00,,---,0.00,VWS V14.01,2013-09-12 04:54:00,
2013-09-12 00:59:00,72.7,69.3,29.95,North,355,0.0,0.0,89,0.00,,---,0.00,VWS V14.01,2013-09-12 04:59:00,
2013-09-12 01:04:00,72.7,69.3,29.95,North,355,0.0,0.0,89,0.00,,---,0.00,VWS V14.01,2013-09-12 05:04:00,
2013-09-12 01:09:00,72.5,69.1,29.95,North,355,0.0,0.0,89,0.00,,---,0.00,VWS V14.01,2013-09-12 05:09:00,
2013-09-12 01:14:00,72.5,69.1,29.95,North,355,0.0,0.0,89,0.00,,---,0.00,VWS V14.01,2013-09-12 05:14:00,
2013-09-12 01:19:00,72.5,69.4,29.95,North,355,0.0,0.0,90,0.00,,---,0.00,VWS V14.01,2013-09-12 05:19:00,
2013-09-12 01:24:00,72.3,69.2,29.94,North,355,0.0,0.0,90,0.00,,---,0.00,VWS V14.01,2013-09-12 05:24:00,
2013-09-12 01:29:00,72.3,69.2,29.94,North,355,0.0,0.0,90,0.00,,---,0.00,VWS V14.01,2013-09-12 05:29:00,
2013-09-12 01:35:00,72.1,69.0,29.94,North,355,0.0,0.0,90,0.00,,---,0.00,VWS V14.01,2013-09-12 05:35:00,
2013-09-12 01:40:00,72.1,69.0,29.94,North,355,0.0,0.0,90,0.00,,---,0.00,VWS V14.01,2013-09-12 05:40:00,
2013-09-12 01:45:00,72.1,69.0,29.94,North,355,0.0,0.0,90,0.00,,---,0.00,VWS V14.01,2013-09-12 05:45:00,
2013-09-12 01:50:00,72.1,69.0,29.94,North,355,0.0,0.0,90,0.00,,---,0.00,VWS V14.01,2013-09-12 05:50:00,
2013-09-12 01:55:00,72.0,68.9,29.93,North,355,0.0,0.0,90,0.00,,---,0.00,VWS V14.01,2013-09-12 05:55:00,
2013-09-12 02:00:00,72.0,68.9,29.93,North,355,0.0,0.0,90,0.00,,---,0.00,VWS V14.01,2013-09-12 06:00:00,
2013-09-12 02:05:00,71.8,68.7,29.93,North,355,0.0,0.0,90,0.00,,---,0.00,VWS V14.01,2013-09-12 06:05:00,
2013-09-12 02:11:00,71.8,68.7,29.93,North,355,0.0,0.0,90,0.00,,---,0.00,VWS V14.01,2013-09-12 06:11:00,
2013-09-12 02:16:00,71.6,68.5,29.93,North,355,0.0,0.0,90,0.00,,---,0.00,VWS V14.01,2013-09-12 06:16:00,
2013-09-12 02:21:00,71.6,68.5,29.93,North,355,0.0,0.0,90,0.00,,---,0.00,VWS V14.01,2013-09-12 06:21:00,
2013-09-12 02:27:00,71.5,68.7,29.93,North,355,0.0,0.0,91,0.00,,---,0.00,VWS V14.01,2013-09-12 06:27:00,
2013-09-12 02:32:00,71.5,68.7,29.93,North,355,0.0,0.0,91,0.00,,---,0.00,VWS V14.01,2013-09-12 06:32:00,
2013-09-12 02:37:00,71.3,68.5,29.93,North,355,0.0,0.0,91,0.00,,---,0.00,VWS V14.01,2013-09-12 06:37:00,
2013-09-12 02:42:00,71.3,68.5,29.93,North,355,0.0,0.0,91,0.00,,---,0.00,VWS V14.01,2013-09-12 06:42:00,
2013-09-12 02:48:00,71.1,68.3,29.92,North,355,0.0,0.0,91,0.00,,---,0.00,VWS V14.01,2013-09-12 06:48:00,
2013-09-12 02:53:00,71.1,68.3,29.93,North,355,0.0,0.0,91,0.00,,---,0.00,VWS V14.01,2013-09-12 06:53:00,
2013-09-12 02:58:00,70.9,68.2,29.93,North,355,0.0,0.0,91,0.00,,---,0.00,VWS V14.01,2013-09-12 06:58:00,
2013-09-12 03:04:00,70.9,68.5,29.92,North,355,0.0,0.0,92,0.00,,---,0.00,VWS V14.01,2013-09-12 07:04:00,
2013-09-12 03:09:00,70.9,68.5,29.92,North,355,0.0,0.0,92,0.00,,---,0.00,VWS V14.01,2013-09-12 07:09:00,
2013-09-12 03:14:00,70.8,68.4,29.92,North,355,0.0,0.0,92,0.00,,---,0.00,VWS V14.01,2013-09-12 07:14:00,
2013-09-12 03:19:00,70.6,68.2,29.92,North,355,0.0,0.0,92,0.00,,---,0.00,VWS V14.01,2013-09-12 07:19:00,
2013-09-12 03:25:00,70.8,68.4,29.92,North,355,0.0,0.0,92,0.00,,---,0.00,VWS V14.01,2013-09-12 07:25:00,
2013-09-12 03:30:00,70.9,68.8,29.92,North,355,0.0,0.0,93,0.00,,---,0.00,VWS V14.01,2013-09-12 07:30:00,
2013-09-12 03:35:00,70.9,68.8,29.92,North,355,0.0,0.0,93,0.00,,---,0.00,VWS V14.01,2013-09-12 07:35:00,
2013-09-12 03:40:00,70.9,68.5,29.92,North,355,0.0,0.0,92,0.00,,---,0.00,VWS V14.01,2013-09-12 07:40:00,
2013-09-12 03:45:00,70.6,68.2,29.92,North,355,0.0,0.0,92,0.00,,---,0.00,VWS V14.01,2013-09-12 07:45:00,
2013-09-12 03:50:00,70.3,67.9,29.92,North,355,0.0,0.0,92,0.00,,---,0.00,VWS V14.01,2013-09-12 07:50:00,
2013-09-12 03:55:00,70.1,67.7,29.92,North,355,0.0,0.0,92,0.00,,---,0.00,VWS V14.01,2013-09-12 07:55:00,
2013-09-12 04:00:00,69.9,67.5,29.92,North,355,0.0,0.0,92,0.00,,---,0.00,VWS V14.01,2013-09-12 08:00:00,
2013-09-12 04:06:00,69.9,67.5,29.92,North,355,0.0,0.0,92,0.00,,---,0.00,VWS V14.01,2013-09-12 08:06:00,
2013-09-12 04:11:00,69.9,67.5,29.92,North,355,0.0,0.0,92,0.00,,---,0.00,VWS V14.01,2013-09-12 08:11:00,
2013-09-12 04:16:00,70.1,68.0,29.92,North,355,0.0,0.0,93,0.00,,---,0.00,VWS V14.01,2013-09-12 08:16:00,
2013-09-12 04:21:00,70.3,68.2,29.92,North,355,0.0,0.0,93,0.00,,---,0.00,VWS V14.01,2013-09-12 08:21:00,
2013-09-12 04:26:00,70.3,68.2,29.92,North,355,0.0,0.0,93,0.00,,---,0.00,VWS V14.01,2013-09-12 08:26:00,
2013-09-12 04:32:00,70.3,68.2,29.92,North,355,0.0,0.0,93,0.00,,---,0.00,VWS V14.01,2013-09-12 08:32:00,
2013-09-12 04:37:00,70.4,68.6,29.92,North,355,0.0,0.0,94,0.00,,---,0.00,VWS V14.01,2013-09-12 08:37:00,
2013-09-12 04:42:00,70.6,68.8,29.92,North,355,0.0,0.0,94,0.00,,---,0.00,VWS V14.01,2013-09-12 08:42:00,
2013-09-12 04:47:00,70.4,68.6,29.92,North,355,0.0,0.0,94,0.00,,---,0.00,VWS V14.01,2013-09-12 08:47:00,
2013-09-12 04:52:00,70.6,68.8,29.92,North,355,0.0,0.0,94,0.00,,---,0.00,VWS V14.01,2013-09-12 08:52:00,
2013-09-12 04:58:00,70.8,69.0,29.92,North,355,0.0,0.0,94,0.00,,---,0.00,VWS V14.01,2013-09-12 08:58:00,
2013-09-12 05:03:00,70.9,69.1,29.92,North,355,0.0,0.0,94,0.00,,---,0.00,VWS V14.01,2013-09-12 09:03:00,
2013-09-12 05:08:00,70.9,69.1,29.92,North,355,0.0,0.0,94,0.00,,---,0.00,VWS V14.01,2013-09-12 09:08:00,
2013-09-12 05:13:00,70.9,69.4,29.92,North,355,0.0,0.0,95,0.00,,---,0.00,VWS V14.01,2013-09-12 09:13:00,
2013-09-12 05:18:00,71.1,69.3,29.92,North,355,0.0,0.0,94,0.00,,---,0.00,VWS V14.01,2013-09-12 09:18:00,
2013-09-12 05:23:00,70.9,69.1,29.92,North,355,0.0,0.0,94,0.00,,---,0.00,VWS V14.01,2013-09-12 09:23:00,
2013-09-12 05:28:00,70.9,69.1,29.92,North,355,0.0,0.0,94,0.00,,---,0.00,VWS V14.01,2013-09-12 09:28:00,
2013-09-12 05:34:00,70.8,69.0,29.92,North,355,0.0,0.0,94,0.00,,---,0.00,VWS V14.01,2013-09-12 09:34:00,
2013-09-12 05:40:00,70.6,68.8,29.92,North,355,0.0,0.0,94,0.00,,---,0.00,VWS V14.01,2013-09-12 09:40:00,
2013-09-12 05:46:00,70.6,68.8,29.92,North,355,0.0,0.0,94,0.00,,---,0.00,VWS V14.01,2013-09-12 09:46:00,
2013-09-12 05:51:00,70.8,69.0,29.91,North,355,0.0,0.0,94,0.00,,---,0.00,VWS V14.01,2013-09-12 09:51:00,
2013-09-12 05:57:00,70.8,69.3,29.91,North,355,0.0,0.0,95,0.00,,---,0.00,VWS V14.01,2013-09-12 09:57:00,
2013-09-12 06:03:00,70.8,69.3,29.91,North,355,0.0,0.0,95,0.00,,---,0.00,VWS V14.01,2013-09-12 10:03:00,
2013-09-12 06:08:00,70.8,69.3,29.91,North,355,0.0,0.0,95,0.00,,---,0.00,VWS V14.01,2013-09-12 10:08:00,
2013-09-12 06:13:00,70.9,69.4,29.91,North,355,0.0,0.0,95,0.00,,---,0.00,VWS V14.01,2013-09-12 10:13:00,
2013-09-12 06:18:00,70.8,69.3,29.91,NE,36,0.0,0.0,95,0.00,,---,0.00,VWS V14.01,2013-09-12 10:18:00,
2013-09-12 06:23:00,70.8,69.3,29.91,NE,36,0.0,0.0,95,0.00,,---,0.00,VWS V14.01,2013-09-12 10:23:00,
2013-09-12 06:28:00,70.8,69.3,29.91,NE,36,0.0,0.0,95,0.00,,---,0.00,VWS V14.01,2013-09-12 10:28:00,
2013-09-12 06:33:00,70.8,69.0,29.91,NE,38,0.0,0.0,94,0.00,,---,0.00,VWS V14.01,2013-09-12 10:33:00,
2013-09-12 06:39:00,70.8,69.0,29.91,NE,38,0.0,0.0,94,0.00,,---,0.00,VWS V14.01,2013-09-12 10:39:00,
2013-09-12 06:44:00,70.8,69.0,29.91,NE,38,0.0,0.0,94,0.00,,---,0.00,VWS V14.01,2013-09-12 10:44:00,
2013-09-12 06:49:00,70.8,69.0,29.91,NE,38,0.0,0.0,94,0.00,,---,0.00,VWS V14.01,2013-09-12 10:49:00,
2013-09-12 06:54:00,70.8,69.0,29.91,NE,38,0.0,0.0,94,0.00,,---,0.00,VWS V14.01,2013-09-12 10:54:00,
2013-09-12 06:59:00,70.6,68.8,29.90,NE,38,0.0,0.0,94,0.00,,---,0.00,VWS V14.01,2013-09-12 10:59:00,
2013-09-12 07:04:00,70.6,68.8,29.91,NE,38,0.0,0.0,94,0.00,,---,0.00,VWS V14.01,2013-09-12 11:04:00,
2013-09-12 07:09:00,70.6,68.8,29.90,NE,38,0.0,0.0,94,0.00,,---,0.00,VWS V14.01,2013-09-12 11:09:00,
2013-09-12 07:14:00,70.6,68.8,29.90,NE,38,0.0,0.0,94,0.00,,---,0.00,VWS V14.01,2013-09-12 11:14:00,
2013-09-12 07:20:00,70.8,69.0,29.90,NE,38,0.0,0.0,94,0.00,,---,0.00,VWS V14.01,2013-09-12 11:20:00,
2013-09-12 07:25:00,70.8,69.0,29.91,NE,38,0.0,0.0,94,0.00,,---,0.00,VWS V14.01,2013-09-12 11:25:00,
2013-09-12 07:30:00,70.8,69.0,29.90,NE,38,0.0,0.0,94,0.00,,---,0.00,VWS V14.01,2013-09-12 11:30:00,
2013-09-12 07:35:00,70.8,69.0,29.90,NE,38,0.0,0.0,94,0.00,,---,0.00,VWS V14.01,2013-09-12 11:35:00,
2013-09-12 07:40:00,70.9,69.1,29.90,NE,38,0.0,0.0,94,0.00,,---,0.00,VWS V14.01,2013-09-12 11:40:00,
2013-09-12 07:45:00,70.9,69.1,29.91,NE,38,0.0,0.0,94,0.00,,---,0.00,VWS V14.01,2013-09-12 11:45:00,
2013-09-12 07:50:00,71.1,69.3,29.90,NE,38,0.0,0.0,94,0.00,,---,0.00,VWS V14.01,2013-09-12 11:50:00,
2013-09-12 07:55:00,71.3,69.5,29.90,WSW,246,1.0,1.0,94,0.00,,---,0.00,VWS V14.01,2013-09-12 11:55:00,
2013-09-12 08:00:00,71.5,69.7,29.91,ESE,106,0.0,0.0,94,0.00,,---,0.00,VWS V14.01,2013-09-12 12:00:00,
2013-09-12 08:05:00,71.6,69.8,29.90,SSE,157,2.0,2.0,94,0.00,,---,0.00,VWS V14.01,2013-09-12 12:05:00,
2013-09-12 08:11:00,71.8,69.7,29.90,NW,310,0.0,1.0,93,0.00,,---,0.00,VWS V14.01,2013-09-12 12:11:00,
2013-09-12 08:17:00,72.0,69.9,29.90,South,173,0.0,0.0,93,0.00,,---,0.00,VWS V14.01,2013-09-12 12:17:00,
2013-09-12 08:22:00,72.1,70.0,29.89,South,173,0.0,0.0,93,0.00,,---,0.00,VWS V14.01,2013-09-12 12:22:00,
2013-09-12 08:27:00,72.1,69.7,29.89,South,173,0.0,0.0,92,0.00,,---,0.00,VWS V14.01,2013-09-12 12:27:00,
2013-09-12 08:32:00,72.3,69.8,29.89,SSE,153,0.0,0.0,92,0.00,,---,0.00,VWS V14.01,2013-09-12 12:32:00,
2013-09-12 08:37:00,72.3,69.8,29.89,SSE,153,0.0,0.0,92,0.00,,---,0.00,VWS V14.01,2013-09-12 12:37:00,
2013-09-12 08:42:00,72.5,70.1,29.89,SE,131,0.0,0.0,92,0.00,,---,0.00,VWS V14.01,2013-09-12 12:42:00,
2013-09-12 08:47:00,72.7,70.2,29.89,SE,131,0.0,0.0,92,0.00,,---,0.00,VWS V14.01,2013-09-12 12:47:00,
2013-09-12 08:53:00,72.8,70.0,29.89,SSE,164,0.0,2.0,91,0.00,,---,0.00,VWS V14.01,2013-09-12 12:53:00,
2013-09-12 08:58:00,73.0,70.2,29.89,SSE,154,0.0,0.0,91,0.00,,---,0.00,VWS V14.01,2013-09-12 12:58:00,
2013-09-12 09:03:00,73.2,70.4,29.89,SSE,154,0.0,0.0,91,0.00,,---,0.00,VWS V14.01,2013-09-12 13:03:00,
2013-09-12 09:08:00,73.3,70.2,29.89,SSE,152,0.0,0.0,90,0.00,,---,0.00,VWS V14.01,2013-09-12 13:08:00,
2013-09-12 09:13:00,73.5,70.4,29.89,SSE,152,0.0,1.0,90,0.00,,---,0.00,VWS V14.01,2013-09-12 13:13:00,
2013-09-12 09:18:00,73.9,70.8,29.88,SSE,152,0.0,0.0,90,0.00,,---,0.00,VWS V14.01,2013-09-12 13:18:00,
2013-09-12 09:23:00,74.0,70.6,29.88,SE,128,0.0,0.0,89,0.00,,---,0.00,VWS V14.01,2013-09-12 13:23:00,
2013-09-12 09:29:00,74.4,70.9,29.88,SE,128,0.0,0.0,89,0.00,,---,0.00,VWS V14.01,2013-09-12 13:29:00,
2013-09-12 09:34:00,74.6,71.2,29.88,SSE,152,0.0,3.0,89,0.00,,---,0.00,VWS V14.01,2013-09-12 13:34:00,
2013-09-12 09:39:00,74.9,71.1,29.88,WSW,237,0.0,0.0,88,0.00,,---,0.00,VWS V14.01,2013-09-12 13:39:00,
2013-09-12 09:44:00,75.1,71.0,29.88,WSW,237,0.0,0.0,87,0.00,,---,0.00,VWS V14.01,2013-09-12 13:44:00,
2013-09-12 09:49:00,75.4,71.3,29.88,WSW,237,0.0,0.0,87,0.00,,---,0.00,VWS V14.01,2013-09-12 13:49:00,
2013-09-12 09:54:00,75.6,71.1,29.88,NE,53,0.0,0.0,86,0.00,,---,0.00,VWS V14.01,2013-09-12 13:54:00,
2013-09-12 10:00:00,76.1,71.6,29.87,ESE,113,0.0,1.0,86,0.00,,---,0.00,VWS V14.01,2013-09-12 14:00:00,
2013-09-12 10:05:00,76.5,71.3,29.87,SSE,151,0.0,1.0,84,0.00,,---,0.00,VWS V14.01,2013-09-12 14:05:00,
2013-09-12 10:10:00,76.7,71.5,29.87,SSE,151,0.0,0.0,84,0.00,,---,0.00,VWS V14.01,2013-09-12 14:10:00,
2013-09-12 10:15:00,77.0,71.8,29.87,SW,223,0.0,0.0,84,0.00,,---,0.00,VWS V14.01,2013-09-12 14:15:00,
2013-09-12 10:20:00,77.4,71.8,29.86,NE,36,0.0,0.0,83,0.00,,---,0.00,VWS V14.01,2013-09-12 14:20:00,
2013-09-12 10:26:00,77.9,72.0,29.86,NNE,27,0.0,0.0,82,0.00,,---,0.00,VWS V14.01,2013-09-12 14:26:00,
2013-09-12 10:31:00,78.3,72.4,29.86,ESE,122,0.0,1.0,82,0.00,,---,0.00,VWS V14.01,2013-09-12 14:31:00,
2013-09-12 10:36:00,78.8,72.5,29.86,SSE,150,0.0,1.0,81,0.00,,---,0.00,VWS V14.01,2013-09-12 14:36:00,
2013-09-12 10:41:00,79.4,72.3,29.86,SSW,195,0.0,0.0,79,0.00,,---,0.00,VWS V14.01,2013-09-12 14:41:00,
2013-09-12 10:46:00,79.8,72.3,29.86,SSW,196,0.0,1.0,78,0.00,,---,0.00,VWS V14.01,2013-09-12 14:46:00,
2013-09-12 10:51:00,79.9,72.1,29.86,SW,220,0.0,1.0,77,0.00,,---,0.00,VWS V14.01,2013-09-12 14:51:00,
2013-09-12 10:56:00,80.1,72.2,29.85,WSW,257,0.0,1.0,77,0.00,,---,0.00,VWS V14.01,2013-09-12 14:56:00,
2013-09-12 11:01:00,80.1,71.9,29.85,East,88,0.0,1.0,76,0.00,,---,0.00,VWS V14.01,2013-09-12 15:01:00,
2013-09-12 11:07:00,80.3,72.1,29.85,East,95,0.0,1.0,76,0.00,,---,0.00,VWS V14.01,2013-09-12 15:07:00,
2013-09-12 11:12:00,80.5,72.2,29.85,SE,142,1.0,1.0,76,0.00,,---,0.00,VWS V14.01,2013-09-12 15:12:00,
2013-09-12 11:18:00,80.9,72.2,29.85,West,279,0.0,0.0,75,0.00,,---,0.00,VWS V14.01,2013-09-12 15:18:00,
2013-09-12 11:23:00,80.9,72.2,29.85,West,275,0.0,0.0,75,0.00,,---,0.00,VWS V14.01,2013-09-12 15:23:00,
2013-09-12 11:29:00,81.2,72.5,29.84,SW,221,0.0,0.0,75,0.00,,---,0.00,VWS V14.01,2013-09-12 15:29:00,
2013-09-12 11:34:00,81.8,72.7,29.84,SE,126,0.0,1.0,74,0.00,,---,0.00,VWS V14.01,2013-09-12 15:34:00,
2013-09-12 11:39:00,82.2,72.3,29.84,South,188,0.0,3.0,72,0.00,,---,0.00,VWS V14.01,2013-09-12 15:39:00,
2013-09-12 11:44:00,82.8,72.4,29.84,SSW,196,0.0,1.0,71,0.00,,---,0.00,VWS V14.01,2013-09-12 15:44:00,
2013-09-12 11:49:00,83.2,72.8,29.84,South,185,0.0,1.0,71,0.00,,---,0.00,VWS V14.01,2013-09-12 15:49:00,
2013-09-12 11:55:00,83.4,72.2,29.84,WNW,295,0.0,0.0,69,0.00,,---,0.00,VWS V14.01,2013-09-12 15:55:00,
2013-09-12 12:01:00,83.8,72.6,29.83,WNW,295,0.0,0.0,69,0.00,,---,0.00,VWS V14.01,2013-09-12 16:01:00,
2013-09-12 12:07:00,84.1,72.4,29.83,WNW,295,0.0,0.0,68,0.00,,---,0.00,VWS V14.01,2013-09-12 16:07:00,
2013-09-12 12:13:00,84.1,72.0,29.83,SW,232,2.0,2.0,67,0.00,,---,0.00,VWS V14.01,2013-09-12 16:13:00,
2013-09-12 12:18:00,84.0,71.4,29.83,SSE,163,0.0,2.0,66,0.00,,---,0.00,VWS V14.01,2013-09-12 16:18:00,
2013-09-12 12:23:00,84.1,72.4,29.83,SE,140,0.0,1.0,68,0.00,,---,0.00,VWS V14.01,2013-09-12 16:23:00,
2013-09-12 12:28:00,84.3,71.3,29.83,WSW,250,1.0,4.0,65,0.00,,---,0.00,VWS V14.01,2013-09-12 16:28:00,
2013-09-12 12:33:00,84.3,71.3,29.82,West,265,0.0,0.0,65,0.00,,---,0.00,VWS V14.01,2013-09-12 16:33:00,
2013-09-12 12:38:00,84.5,71.4,29.82,West,265,0.0,1.0,65,0.00,,---,0.00,VWS V14.01,2013-09-12 16:38:00,
2013-09-12 12:43:00,84.5,71.4,29.82,West,265,0.0,0.0,65,0.00,,---,0.00,VWS V14.01,2013-09-12 16:43:00,
2013-09-12 12:48:00,84.7,71.2,29.82,SW,217,0.0,2.0,64,0.00,,---,0.00,VWS V14.01,2013-09-12 16:48:00,
2013-09-12 12:54:00,84.3,70.3,29.82,SW,222,0.0,0.0,63,0.00,,---,0.00,VWS V14.01,2013-09-12 16:54:00,
2013-09-12 12:59:00,84.5,71.0,29.81,NNE,33,0.0,2.0,64,0.00,,---,0.00,VWS V14.01,2013-09-12 16:59:00,
2013-09-12 13:04:00,84.7,71.6,29.81,WNW,302,0.0,0.0,65,0.00,,---,0.00,VWS V14.01,2013-09-12 17:04:00,
2013-09-12 13:09:00,85.1,71.1,29.81,South,178,1.0,4.0,63,0.00,,---,0.00,VWS V14.01,2013-09-12 17:09:00,
2013-09-12 13:14:00,85.1,70.6,29.81,SW,219,1.0,1.0,62,0.00,,---,0.00,VWS V14.01,2013-09-12 17:14:00,
2013-09-12 13:19:00,85.1,70.6,29.81,WSW,246,0.0,0.0,62,0.00,,---,0.00,VWS V14.01,2013-09-12 17:19:00,
2013-09-12 13:24:00,84.9,70.0,29.81,SSW,194,1.0,2.0,61,0.00,,---,0.00,VWS V14.01,2013-09-12 17:24:00,
2013-09-12 13:29:00,84.5,70.5,29.81,East,86,0.0,3.0,63,0.00,,---,0.00,VWS V14.01,2013-09-12 17:29:00,
2013-09-12 13:34:00,84.0,70.5,29.80,SSE,150,4.0,6.0,64,0.00,,---,0.00,VWS V14.01,2013-09-12 17:34:00,
2013-09-12 13:39:00,83.4,70.4,29.80,SSE,165,0.0,0.0,65,0.00,,---,0.00,VWS V14.01,2013-09-12 17:39:00,
2013-09-12 13:45:00,82.6,70.1,29.79,SSE,154,0.0,0.0,66,0.00,,---,0.00,VWS V14.01,2013-09-12 17:45:00,
2013-09-12 13:50:00,82.4,70.3,29.79,SSE,158,0.0,0.0,67,0.00,,---,0.00,VWS V14.01,2013-09-12 17:50:00,
2013-09-12 13:55:00,82.0,70.8,29.79,SSE,151,0.0,1.0,69,0.00,,---,0.00,VWS V14.01,2013-09-12 17:55:00,
2013-09-12 14:00:00,81.6,70.4,29.79,South,185,0.0,1.0,69,0.00,,---,0.00,VWS V14.01,2013-09-12 18:00:00,
2013-09-12 14:05:00,81.2,70.9,29.79,SSE,166,0.0,4.0,71,0.00,,---,0.00,VWS V14.01,2013-09-12 18:05:00,
2013-09-12 14:10:00,80.9,70.6,29.79,ESE,119,0.0,1.0,71,0.00,,---,0.00,VWS V14.01,2013-09-12 18:10:00,
2013-09-12 14:15:00,80.5,70.7,29.78,ESE,119,0.0,0.0,72,0.00,,---,0.00,VWS V14.01,2013-09-12 18:15:00,
2013-09-12 14:20:00,80.1,70.7,29.77,SSE,159,0.0,0.0,73,0.00,,---,0.00,VWS V14.01,2013-09-12 18:20:00,
2013-09-12 14:25:00,79.8,70.4,29.77,SSE,154,0.0,0.0,73,0.00,,---,0.00,VWS V14.01,2013-09-12 18:25:00,
2013-09-12 14:30:00,79.4,70.4,29.77,SE,144,0.0,0.0,74,0.00,,---,0.00,VWS V14.01,2013-09-12 18:30:00,
2013-09-12 14:36:00,79.2,70.6,29.76,SE,144,0.0,0.0,75,0.00,,---,0.00,VWS V14.01,2013-09-12 18:36:00,
2013-09-12 14:41:00,79.0,70.8,29.76,SE,134,0.0,0.0,76,0.00,,---,0.00,VWS V14.01,2013-09-12 18:41:00,
2013-09-12 14:46:00,78.6,70.4,29.77,SE,134,0.0,0.0,76,0.00,,---,0.00,VWS V14.01,2013-09-12 18:46:00,
2013-09-12 14:51:00,78.3,70.1,29.77,WSW,240,0.0,0.0,76,0.00,,---,0.00,VWS V14.01,2013-09-12 18:51:00,
2013-09-12 14:56:00,78.1,70.3,29.77,WSW,240,0.0,0.0,77,0.00,,---,0.00,VWS V14.01,2013-09-12 18:56:00,
2013-09-12 15:01:00,77.7,70.3,29.77,WSW,240,0.0,0.0,78,0.00,,---,0.00,VWS V14.01,2013-09-12 19:01:00,
2013-09-12 15:06:00,77.4,70.4,29.76,WSW,240,0.0,0.0,79,0.00,,---,0.00,VWS V14.01,2013-09-12 19:06:00,
2013-09-12 15:12:00,77.2,70.9,29.75,WSW,240,0.0,0.0,81,0.00,,---,0.00,VWS V14.01,2013-09-12 19:12:00,
2013-09-12 15:17:00,77.0,71.1,29.75,WSW,240,0.0,0.0,82,0.00,,---,0.00,VWS V14.01,2013-09-12 19:17:00,
2013-09-12 15:22:00,77.0,71.1,29.75,WSW,240,0.0,0.0,82,0.00,,---,0.00,VWS V14.01,2013-09-12 19:22:00,
2013-09-12 15:27:00,76.8,70.5,29.75,WSW,240,0.0,0.0,81,0.00,,---,0.00,VWS V14.01,2013-09-12 19:27:00,
2013-09-12 15:32:00,76.8,70.2,29.75,WSW,240,0.0,0.0,80,0.00,,---,0.00,VWS V14.01,2013-09-12 19:32:00,
2013-09-12 15:37:00,77.2,70.2,29.74,WSW,240,0.0,0.0,79,0.00,,---,0.00,VWS V14.01,2013-09-12 19:37:00,
2013-09-12 15:43:00,77.6,69.8,29.74,WSW,240,0.0,0.0,77,0.00,,---,0.00,VWS V14.01,2013-09-12 19:43:00,
2013-09-12 15:48:00,77.9,69.7,29.73,WSW,240,0.0,1.0,76,0.00,,---,0.00,VWS V14.01,2013-09-12 19:48:00,
2013-09-12 15:53:00,78.3,69.3,29.73,WSW,246,0.0,3.0,74,0.00,,---,0.00,VWS V14.01,2013-09-12 19:53:00,
2013-09-12 15:58:00,78.6,69.6,29.73,WSW,246,0.0,4.0,74,0.00,,---,0.00,VWS V14.01,2013-09-12 19:58:00,
2013-09-12 16:03:00,78.8,69.0,29.73,West,263,0.0,2.0,72,0.00,,---,0.00,VWS V14.01,2013-09-12 20:03:00,
2013-09-12 16:08:00,79.0,68.8,29.72,West,264,0.0,1.0,71,0.00,,---,0.00,VWS V14.01,2013-09-12 20:08:00,
2013-09-12 16:14:00,79.2,69.4,29.72,West,264,0.0,0.0,72,0.00,,---,0.00,VWS V14.01,2013-09-12 20:14:00,
2013-09-12 16:19:00,79.4,69.2,29.72,SSW,212,0.0,1.0,71,0.00,,---,0.00,VWS V14.01,2013-09-12 20:19:00,
2013-09-12 16:24:00,79.8,70.0,29.72,SW,230,0.0,1.0,72,0.00,,---,0.00,VWS V14.01,2013-09-12 20:24:00,
2013-09-12 16:30:00,80.1,69.9,29.72,South,186,0.0,3.0,71,0.00,,---,0.00,VWS V14.01,2013-09-12 20:30:00,
2013-09-12 16:35:00,80.5,69.4,29.72,SSE,156,0.0,1.0,69,0.00,,---,0.00,VWS V14.01,2013-09-12 20:35:00,
2013-09-12 16:41:00,80.7,70.0,29.72,NNW,342,0.0,1.0,70,0.00,,---,0.00,VWS V14.01,2013-09-12 20:41:00,
2013-09-12 16:47:00,80.9,70.2,29.71,South,172,0.0,1.0,70,0.00,,---,0.00,VWS V14.01,2013-09-12 20:47:00,
2013-09-12 16:53:00,80.7,70.0,29.71,South,172,0.0,1.0,70,0.00,,---,0.00,VWS V14.01,2013-09-12 20:53:00,
2013-09-12 16:59:00,80.3,70.1,29.71,South,172,0.0,0.0,71,0.00,,---,0.00,VWS V14.01,2013-09-12 20:59:00,
2013-09-12 17:04:00,80.1,70.7,29.71,South,171,0.0,1.0,73,0.00,,---,0.00,VWS V14.01,2013-09-12 21:04:00,
2013-09-12 17:09:00,79.8,70.0,29.72,SSE,155,0.0,1.0,72,0.00,,---,0.00,VWS V14.01,2013-09-12 21:09:00,
2013-09-12 17:15:00,79.6,69.8,29.71,SE,130,0.0,0.0,72,0.00,,---,0.00,VWS V14.01,2013-09-12 21:15:00,
2013-09-12 17:20:00,79.4,70.0,29.71,SE,130,0.0,0.0,73,0.00,,---,0.00,VWS V14.01,2013-09-12 21:20:00,
2013-09-12 17:25:00,79.2,70.2,29.71,SSE,164,0.0,1.0,74,0.00,,---,0.00,VWS V14.01,2013-09-12 21:25:00,
2013-09-12 17:30:00,79.0,70.0,29.71,NW,313,0.0,0.0,74,0.00,,---,0.00,VWS V14.01,2013-09-12 21:30:00,
2013-09-12 17:35:00,78.8,70.2,29.71,SE,142,0.0,0.0,75,0.00,,---,0.00,VWS V14.01,2013-09-12 21:35:00,
2013-09-12 17:40:00,78.6,70.4,29.70,SE,142,0.0,0.0,76,0.00,,---,0.00,VWS V14.01,2013-09-12 21:40:00,
2013-09-12 17:45:00,78.5,70.3,29.70,SSE,161,0.0,0.0,76,0.00,,---,0.00,VWS V14.01,2013-09-12 21:45:00,
2013-09-12 17:50:00,78.3,70.5,29.71,SSE,167,0.0,1.0,77,0.00,,---,0.00,VWS V14.01,2013-09-12 21:50:00,
2013-09-12 17:55:00,78.1,70.3,29.70,SSE,167,0.0,0.0,77,0.00,,---,0.00,VWS V14.01,2013-09-12 21:55:00,
2013-09-12 18:00:00,77.7,70.3,29.70,SSE,167,0.0,0.0,78,0.00,,---,0.00,VWS V14.01,2013-09-12 22:00:00,
2013-09-12 18:06:00,77.6,71.3,29.71,SSE,167,0.0,0.0,81,0.00,,---,0.00,VWS V14.01,2013-09-12 22:06:00,
2013-09-12 18:11:00,77.0,71.1,29.71,SSE,167,0.0,0.0,82,0.00,,---,0.00,VWS V14.01,2013-09-12 22:11:00,
2013-09-12 18:16:00,76.1,70.9,29.71,SSE,167,0.0,0.0,84,0.00,,---,0.00,VWS V14.01,2013-09-12 22:16:00,
2013-09-12 18:21:00,75.4,70.9,29.70,SSE,167,0.0,0.0,86,0.00,,---,0.00,VWS V14.01,2013-09-12 22:21:00,
2013-09-12 18:26:00,75.1,71.0,29.70,SSE,167,0.0,0.0,87,0.00,,---,0.00,VWS V14.01,2013-09-12 22:26:00,
2013-09-12 18:31:00,74.7,70.9,29.70,SSE,167,0.0,0.0,88,0.00,,---,0.00,VWS V14.01,2013-09-12 22:31:00,
2013-09-12 18:37:00,74.6,71.2,29.70,SSE,167,0.0,0.0,89,0.00,,---,0.00,VWS V14.01,2013-09-12 22:37:00,
2013-09-12 18:43:00,74.4,71.3,29.69,SSE,167,0.0,0.0,90,0.00,,---,0.00,VWS V14.01,2013-09-12 22:43:00,
2013-09-12 18:48:00,74.2,71.1,29.69,SSE,167,0.0,0.0,90,0.00,,---,0.00,VWS V14.01,2013-09-12 22:48:00,
2013-09-12 18:54:00,74.0,71.2,29.70,SSE,167,0.0,0.0,91,0.00,,---,0.00,VWS V14.01,2013-09-12 22:54:00,
2013-09-12 18:59:00,73.9,71.4,29.70,SSE,167,0.0,2.0,92,0.00,,---,0.00,VWS V14.01,2013-09-12 22:59:00,
2013-09-12 19:04:00,73.5,70.7,29.70,SSE,166,0.0,0.0,91,0.00,,---,0.00,VWS V14.01,2013-09-12 23:04:00,
2013-09-12 19:10:00,73.2,70.4,29.70,ESE,117,0.0,0.0,91,0.00,,---,0.00,VWS V14.01,2013-09-12 23:10:00,
2013-09-12 19:15:00,72.7,69.9,29.69,South,186,0.0,1.0,91,0.00,,---,0.00,VWS V14.01,2013-09-12 23:15:00,
2013-09-12 19:20:00,72.3,69.8,29.69,SSE,159,0.0,0.0,92,0.00,,---,0.00,VWS V14.01,2013-09-12 23:20:00,
2013-09-12 19:25:00,72.1,69.7,29.69,SSE,164,0.0,1.0,92,0.00,,---,0.00,VWS V14.01,2013-09-12 23:25:00,
2013-09-12 19:30:00,71.8,69.3,29.68,South,172,0.0,2.0,92,0.00,,---,0.00,VWS V14.01,2013-09-12 23:30:00,
2013-09-12 19:35:00,71.5,69.1,29.69,South,169,0.0,0.0,92,0.00,,---,0.00,VWS V14.01,2013-09-12 23:35:00,
2013-09-12 19:40:00,70.9,68.2,29.69,SSE,160,0.0,0.0,91,0.00,,---,0.00,VWS V14.01,2013-09-12 23:40:00,
2013-09-12 19:46:00,70.6,68.2,29.69,SSE,160,0.0,0.0,92,0.00,,---,0.00,VWS V14.01,2013-09-12 23:46:00,
2013-09-12 19:52:00,70.3,67.9,29.69,SSE,159,0.0,0.0,92,0.00,,---,0.00,VWS V14.01,2013-09-12 23:52:00,
2013-09-12 19:58:00,69.9,67.5,29.69,SE,133,0.0,0.0,92,0.00,,---,0.00,VWS V14.01,2013-09-12 23:58:00,
2013-09-12 20:03:00,69.8,67.4,29.72,SSW,194,0.0,3.0,92,0.00,,---,0.00,VWS V14.01,2013-09-13 00:03:00,
2013-09-12 20:09:00,69.3,67.2,29.74,WSW,238,2.0,4.0,93,0.00,,---,0.00,VWS V14.01,2013-09-13 00:09:00,
2013-09-12 20:15:00,69.1,67.0,29.73,SW,233,0.0,0.0,93,0.00,,---,0.00,VWS V14.01,2013-09-13 00:15:00,
2013-09-12 20:20:00,68.9,67.1,29.72,SW,233,0.0,1.0,94,0.00,,---,0.00,VWS V14.01,2013-09-13 00:20:00,
2013-09-12 20:25:00,68.9,67.1,29.72,SW,233,0.0,3.0,94,0.00,,---,0.00,VWS V14.01,2013-09-13 00:25:00,
2013-09-12 20:30:00,68.8,67.0,29.72,SW,233,0.0,0.0,94,0.00,,---,0.00,VWS V14.01,2013-09-13 00:30:00,
2013-09-12 20:35:00,68.8,67.0,29.72,SW,233,0.0,0.0,94,0.00,,---,0.00,VWS V14.01,2013-09-13 00:35:00,
2013-09-12 20:41:00,68.6,66.8,29.72,SW,233,0.0,0.0,94,0.00,,---,0.00,VWS V14.01,2013-09-13 00:41:00,
2013-09-12 20:47:00,68.6,66.8,29.72,SW,233,0.0,0.0,94,0.00,,---,0.00,VWS V14.01,2013-09-13 00:47:00,
2013-09-12 20:53:00,68.6,66.8,29.72,SW,233,0.0,0.0,94,0.00,,---,0.00,VWS V14.01,2013-09-13 00:53:00,
2013-09-12 20:58:00,68.6,67.1,29.71,SW,233,0.0,0.0,95,0.00,,---,0.00,VWS V14.01,2013-09-13 00:58:00,
2013-09-12 21:03:00,68.6,67.1,29.70,SW,233,0.0,0.0,95,0.00,,---,0.00,VWS V14.01,2013-09-13 01:03:00,
2013-09-12 21:09:00,68.6,67.1,29.71,SW,233,0.0,0.0,95,0.00,,---,0.00,VWS V14.01,2013-09-13 01:09:00,
2013-09-12 21:14:00,68.6,67.1,29.70,SW,233,0.0,0.0,95,0.00,,---,0.00,VWS V14.01,2013-09-13 01:14:00,
2013-09-12 21:20:00,68.6,67.1,29.69,SW,233,0.0,0.0,95,0.00,,---,0.00,VWS V14.01,2013-09-13 01:20:00,
2013-09-12 21:25:00,68.4,66.9,29.70,SW,233,0.0,0.0,95,0.00,,---,0.00,VWS V14.01,2013-09-13 01:25:00,
2013-09-12 21:31:00,68.4,66.9,29.70,SW,233,0.0,0.0,95,0.00,,---,0.00,VWS V14.01,2013-09-13 01:31:00,
2013-09-12 21:36:00,68.4,66.9,29.70,SW,233,0.0,0.0,95,0.00,,---,0.00,VWS V14.01,2013-09-13 01:36:00,
2013-09-12 21:41:00,68.4,67.2,29.70,SW,233,0.0,0.0,96,0.00,,---,0.00,VWS V14.01,2013-09-13 01:41:00,
2013-09-12 21:47:00,68.4,67.2,29.69,SW,233,0.0,0.0,96,0.00,,---,0.00,VWS V14.01,2013-09-13 01:47:00,
2013-09-12 21:52:00,68.3,67.1,29.69,SW,233,0.0,0.0,96,0.00,,---,0.00,VWS V14.01,2013-09-13 01:52:00,
2013-09-12 21:57:00,68.3,67.1,29.69,SW,233,0.0,0.0,96,0.00,,---,0.00,VWS V14.01,2013-09-13 01:57:00,
2013-09-12 22:02:00,68.3,67.1,29.69,SW,233,0.0,0.0,96,0.00,,---,0.00,VWS V14.01,2013-09-13 02:02:00,
2013-09-12 22:08:00,68.3,67.1,29.69,SW,233,0.0,0.0,96,0.00,,---,0.00,VWS V14.01,2013-09-13 02:08:00,
2013-09-12 22:13:00,68.3,67.1,29.69,SW,233,0.0,0.0,96,0.00,,---,0.00,VWS V14.01,2013-09-13 02:13:00,
2013-09-12 22:18:00,68.3,67.1,29.69,SW,233,0.0,0.0,96,0.00,,---,0.00,VWS V14.01,2013-09-13 02:18:00,
2013-09-12 22:24:00,68.1,66.9,29.69,SW,233,0.0,0.0,96,0.00,,---,0.00,VWS V14.01,2013-09-13 02:24:00,
2013-09-12 22:29:00,68.1,66.9,29.69,SW,233,0.0,0.0,96,0.00,,---,0.00,VWS V14.01,2013-09-13 02:29:00,
2013-09-12 22:34:00,68.1,66.9,29.69,SW,233,0.0,0.0,96,0.00,,---,0.00,VWS V14.01,2013-09-13 02:34:00,
2013-09-12 22:39:00,68.1,66.9,29.69,SW,233,0.0,0.0,96,0.00,,---,0.00,VWS V14.01,2013-09-13 02:39:00,
2013-09-12 22:45:00,67.9,66.7,29.69,SW,233,0.0,0.0,96,0.00,,---,0.00,VWS V14.01,2013-09-13 02:45:00,
2013-09-12 22:51:00,67.9,66.7,29.68,SW,233,0.0,0.0,96,0.00,,---,0.00,VWS V14.01,2013-09-13 02:51:00,
2013-09-12 22:56:00,67.9,66.7,29.68,SW,233,0.0,0.0,96,0.00,,---,0.00,VWS V14.01,2013-09-13 02:56:00,
2013-09-12 23:01:00,67.8,66.6,29.68,SW,233,0.0,0.0,96,0.00,,---,0.00,VWS V14.01,2013-09-13 03:01:00,
2013-09-12 23:07:00,67.8,66.6,29.68,SW,233,0.0,0.0,96,0.00,,---,0.00,VWS V14.01,2013-09-13 03:07:00,
2013-09-12 23:12:00,67.6,66.4,29.68,SW,233,0.0,0.0,96,0.00,,---,0.00,VWS V14.01,2013-09-13 03:12:00,
2013-09-12 23:17:00,67.6,66.4,29.67,SW,233,0.0,0.0,96,0.00,,---,0.00,VWS V14.01,2013-09-13 03:17:00,
2013-09-12 23:22:00,67.6,66.4,29.68,SW,233,0.0,0.0,96,0.00,,---,0.00,VWS V14.01,2013-09-13 03:22:00,
2013-09-12 23:27:00,67.6,66.4,29.68,SW,233,0.0,0.0,96,0.00,,---,0.00,VWS V14.01,2013-09-13 03:27:00,
2013-09-12 23:32:00,67.4,66.2,29.68,SW,233,0.0,0.0,96,0.00,,---,0.00,VWS V14.01,2013-09-13 03:32:00,
2013-09-12 23:37:00,67.4,66.2,29.68,SW,233,0.0,0.0,96,0.00,,---,0.00,VWS V14.01,2013-09-13 03:37:00,
2013-09-12 23:42:00,67.4,66.2,29.68,SW,233,0.0,0.0,96,0.00,,---,0.00,VWS V14.01,2013-09-13 03:42:00,
2013-09-12 23:47:00,67.4,66.2,29.68,SW,233,0.0,0.0,96,0.00,,---,0.00,VWS V14.01,2013-09-13 03:47:00,
2013-09-12 23:52:00,67.4,66.2,29.68,SW,233,0.0,0.0,96,0.00,,---,0.00,VWS V14.01,2013-09-13 03:52:00,
2013-09-12 23:57:00,67.3,66.1,29.68,SW,233,0.0,0.0,96,0.00,,---,0.00,VWS V14.01,2013-09-13 03:57:00,